createdAt,value
2022-08-20T00:02:53.877Z,87.98
2022-08-20T00:13:32.362Z,87.99
2022-08-20T00:18:51.356Z,88.72
2022-08-20T00:24:10.721Z,90.36
2022-08-20T00:29:30.178Z,91.09
2022-08-20T00:38:03.398Z,90.87
2022-08-20T00:46:47.300Z,90.79
2022-08-20T00:56:05.062Z,86.86
2022-08-20T01:01:24.515Z,85.16
2022-08-20T01:06:43.764Z,85.28
2022-08-20T01:15:31.073Z,85.66
2022-08-20T01:19:33.338Z,86.07
2022-08-20T01:23:49.887Z,85.92
2022-08-20T01:28:06.476Z,86.02
2022-08-20T01:33:20.056Z,85.83
2022-08-20T01:38:39.775Z,85.41
2022-08-20T01:43:59.514Z,85.29
2022-08-20T01:49:28.711Z,84.89
2022-08-20T01:54:38.121Z,84.94
2022-08-20T02:04:24.470Z,85.39
2022-08-20T02:08:30.025Z,85.72
2022-08-20T02:12:46.507Z,86.45
2022-08-20T02:17:14.059Z,85.59
2022-08-20T02:21:30.552Z,85.1
2022-08-20T02:26:32.630Z,84.85
2022-08-20T02:32:23.752Z,84.14
2022-08-20T02:37:11.375Z,84.08
2022-08-20T02:42:30.842Z,83.6
2022-08-20T02:47:50.305Z,84.57
2022-08-20T02:53:20.461Z,84.65
2022-08-20T02:58:28.827Z,83.53
2022-08-20T03:03:47.852Z,81.87
2022-08-20T03:13:35.221Z,81.69
2022-08-20T03:22:08.266Z,80.75
2022-08-20T03:26:24.769Z,79.64
2022-08-20T03:30:41.368Z,79.44
2022-08-20T03:35:53.850Z,79.18
2022-08-20T03:41:01.579Z,79.41
2022-08-20T03:46:31.459Z,79.33
2022-08-20T03:51:56.183Z,79.23
2022-08-20T03:56:59.257Z,79.42
2022-08-20T04:02:18.992Z,80.08
2022-08-20T04:07:38.205Z,80.53
2022-08-20T04:12:57.080Z,80.85
2022-08-20T04:18:28.085Z,81.08
2022-08-20T04:27:01.155Z,80.4
2022-08-20T04:35:34.183Z,80.3
2022-08-20T04:44:52.368Z,80.16
2022-08-20T04:50:11.827Z,80
2022-08-20T04:55:30.640Z,80.57
2022-08-20T05:00:50.280Z,80.14
2022-08-20T05:13:39.712Z,80.94
2022-08-20T05:17:56.493Z,78.51
2022-08-20T05:22:06.798Z,78.62
2022-08-20T05:27:26.239Z,78.5
2022-08-20T05:32:55.003Z,78.44
2022-08-20T05:38:04.342Z,78.46
2022-08-20T05:43:23.907Z,78.01
2022-08-20T05:51:56.984Z,77.56
2022-08-20T05:54:01.864Z,77.96
2022-08-20T05:59:32.135Z,77.14
2022-08-20T06:04:40.484Z,76.65
2022-08-20T06:13:13.785Z,75.43
2022-08-20T06:21:46.642Z,74.37
2022-08-20T06:31:15.869Z,74.19
2022-08-20T06:36:34.961Z,74.06
2022-08-20T06:45:07.997Z,73.66
2022-08-20T06:49:24.578Z,73.46
2022-08-20T06:52:41.593Z,73.98
2022-08-20T06:57:51.269Z,73.14
2022-08-20T07:03:20.254Z,72.67
2022-08-20T07:11:43.357Z,72.76
2022-08-20T07:24:26.055Z,72.26
2022-08-20T07:32:59.178Z,71.26
2022-08-20T07:41:32.160Z,68.22
2022-08-20T07:51:02.710Z,68.98
2022-08-20T07:59:35.773Z,68.08
2022-08-20T08:08:20.796Z,67.82
2022-08-20T08:12:25.365Z,67.01
2022-08-20T08:17:38.794Z,67.04
2022-08-20T08:22:57.684Z,67.66
2022-08-20T08:28:16.423Z,67.62
2022-08-20T08:33:36.010Z,68.41
2022-08-20T08:38:55.430Z,67.32
2022-08-20T08:44:14.906Z,67.39
2022-08-20T08:52:47.933Z,68.17
2022-08-20T08:54:53.542Z,69.87
2022-08-20T09:00:12.761Z,74.79
2022-08-20T09:05:31.578Z,80.72
2022-08-20T09:10:51.167Z,84.73
2022-08-20T09:16:10.026Z,86.59
2022-08-20T09:24:43.074Z,88.74
2022-08-20T09:33:16.139Z,86.28
2022-08-20T09:37:36.863Z,84.67
2022-08-20T09:42:58.366Z,84.03
2022-08-20T09:51:20.170Z,83.33
2022-08-20T09:55:48.722Z,82.51
2022-08-20T09:59:53.244Z,82.37
2022-08-20T10:04:03.736Z,78.97
2022-08-20T10:09:23.254Z,77.43
2022-08-20T10:14:42.415Z,74.82
2022-08-20T10:23:15.484Z,73.83
2022-08-20T10:25:21.309Z,67.69
2022-08-20T10:30:40.252Z,66.35
2022-08-20T10:36:00.102Z,63.73
2022-08-20T10:41:18.349Z,64.51
2022-08-20T10:46:37.564Z,64.08
2022-08-20T10:51:56.952Z,65.1
2022-08-20T10:57:16.519Z,66.83
2022-08-20T11:02:35.915Z,82.17
2022-08-20T11:07:56.364Z,89.51
2022-08-20T11:13:13.933Z,91.76
2022-08-20T11:18:32.180Z,92.2
2022-08-20T11:25:30.700Z,93.23
2022-08-20T11:29:12.125Z,90.35
2022-08-20T11:37:45.178Z,93.46
2022-08-20T11:46:18.235Z,96.3
2022-08-20T11:55:46.923Z,96.51
2022-08-20T12:04:19.959Z,97.09
2022-08-20T12:11:44.533Z,97.68
2022-08-20T12:20:17.573Z,97.19
2022-08-20T12:29:20.331Z,94.86
2022-08-20T12:32:59.811Z,93.62
2022-08-20T12:38:18.986Z,93.02
2022-08-20T12:43:38.501Z,91.55
2022-08-20T12:48:58.096Z,91.72
2022-08-20T12:54:17.469Z,92.86
2022-08-20T12:59:36.171Z,91.93
2022-08-20T13:04:55.720Z,91.3
2022-08-20T13:10:14.240Z,89.55
2022-08-20T13:15:34.299Z,89.37
2022-08-20T13:20:53.074Z,86.62
2022-08-20T13:26:12.502Z,84.14
2022-08-20T13:32:46.616Z,83.21
2022-08-20T13:37:02.058Z,82.05
2022-08-20T13:42:10.364Z,80.87
2022-08-20T13:47:29.562Z,79.26
2022-08-20T13:52:48.307Z,75.72
2022-08-20T13:58:07.933Z,74.48
2022-08-20T14:04:42.088Z,75.3
2022-08-20T14:08:47.538Z,72.62
2022-08-20T14:14:06.748Z,73.3
2022-08-20T14:19:25.581Z,72.69
2022-08-20T14:24:44.484Z,72.58
2022-08-20T14:30:03.265Z,71.71
2022-08-20T14:35:21.868Z,72.04
2022-08-20T14:40:41.225Z,68.78
2022-08-20T14:46:00.516Z,70.33
2022-08-20T14:51:20.143Z,69.48
2022-08-20T14:56:39.714Z,63.63
2022-08-20T15:01:59.096Z,61.47
2022-08-20T15:07:28.585Z,59.01
2022-08-20T15:15:51.603Z,64.58
2022-08-20T15:20:08.125Z,68.44
2022-08-20T15:23:16.250Z,67.17
2022-08-20T15:28:35.029Z,58.17
2022-08-20T15:33:53.981Z,56.14
2022-08-20T15:39:13.622Z,55.28
2022-08-20T15:47:46.669Z,55.21
2022-08-20T16:00:30.995Z,53.69
2022-08-20T16:05:48.778Z,52.52
2022-08-20T16:11:07.479Z,51.71
2022-08-20T16:16:26.316Z,52.05
2022-08-20T16:21:45.236Z,51.29
2022-08-20T16:27:04.366Z,53.27
2022-08-20T16:32:23.597Z,55.66
2022-08-20T16:37:42.720Z,60.19
2022-08-20T16:44:16.894Z,63.04
2022-08-20T16:48:33.427Z,69.01
2022-08-20T16:53:41.608Z,75.16
2022-08-20T16:59:10.530Z,72.97
2022-08-20T17:04:19.819Z,74.17
2022-08-20T17:09:38.674Z,75.28
2022-08-20T17:14:57.428Z,71.83
2022-08-20T17:20:20.151Z,70.57
2022-08-20T17:25:34.817Z,68.01
2022-08-20T17:30:53.521Z,68.26
2022-08-20T17:36:11.567Z,68.65
2022-08-20T17:41:30.780Z,72.3
2022-08-20T17:46:59.485Z,72.24
2022-08-20T17:52:10.306Z,74.82
2022-08-20T17:57:29.973Z,77.76
2022-08-20T18:02:48.978Z,80.82
2022-08-20T18:08:07.718Z,80.05
2022-08-20T18:14:52.963Z,80.01
2022-08-20T18:18:58.423Z,80.14
2022-08-20T18:24:06.187Z,80.22
2022-08-20T18:29:25.135Z,84.07
2022-08-20T18:34:44.521Z,86.04
2022-08-20T18:40:03.848Z,87.2
2022-08-20T18:45:23.148Z,87.46
2022-08-20T18:50:42.349Z,86.4
2022-08-20T18:56:01.619Z,87.57
2022-08-20T19:01:21.083Z,88.1
2022-08-20T19:06:39.852Z,89.81
2022-08-20T19:11:59.264Z,90.27
2022-08-20T19:16:32.088Z,89.4
2022-08-20T19:21:04.759Z,90.27
2022-08-20T19:29:37.842Z,91.62
2022-08-20T19:33:55.144Z,92.35
2022-08-20T19:39:14.721Z,92.83
2022-08-20T19:44:33.936Z,92.89
2022-08-20T19:49:53.585Z,93.1
2022-08-20T19:55:12.855Z,91.94
2022-08-20T20:00:32.075Z,90.45
2022-08-20T20:05:51.178Z,90.03
2022-08-20T20:11:10.521Z,89.72
2022-08-20T20:16:29.832Z,90.14
2022-08-20T20:21:48.815Z,90.75
2022-08-20T20:27:08.072Z,91.09
2022-08-20T20:32:27.349Z,91.61
2022-08-20T20:41:32.867Z,92.4
2022-08-20T20:45:49.562Z,93.45
2022-08-20T20:53:47.495Z,93.96
2022-08-20T20:59:06.703Z,94.38
2022-08-20T21:04:22.917Z,95.15
2022-08-20T21:09:42.463Z,95.72
2022-08-20T21:15:01.664Z,96.17
2022-08-20T21:20:21.571Z,96.74
2022-08-20T21:25:40.487Z,96.97
2022-08-20T21:30:59.583Z,97.29
2022-08-20T21:36:19.243Z,97.44
2022-08-20T21:41:38.924Z,97.49
2022-08-20T21:46:58.466Z,97.68
2022-08-20T21:52:18.093Z,97.87
2022-08-20T21:57:37.077Z,97.92
2022-08-20T22:02:56.376Z,98.09
2022-08-20T22:08:15.957Z,98.2
2022-08-20T22:13:35.633Z,98.36
2022-08-20T22:18:55.111Z,98.49
2022-08-20T22:27:28.170Z,98.5
2022-08-20T22:34:52.746Z,98.69
2022-08-20T22:40:12.184Z,98.79
2022-08-20T22:45:30.903Z,98.8
2022-08-20T22:50:50.181Z,98.79
2022-08-20T22:56:09.460Z,98.87
2022-08-20T23:01:28.633Z,99
2022-08-20T23:06:47.627Z,99.1
2022-08-20T23:12:06.038Z,99.19
2022-08-20T23:17:25.453Z,99.2
2022-08-20T23:22:45.053Z,99.22
2022-08-20T23:28:04.752Z,99.26
2022-08-20T23:33:24.418Z,99.35
2022-08-20T23:38:43.154Z,99.46
2022-08-20T23:44:02.408Z,99.33
2022-08-20T23:50:48.571Z,99.47
2022-08-20T23:55:05.103Z,99.65
